地図

経路データ

SID SEASON NUMBER BASIN SUBBASIN NAME ISO_TIME NATURE LAT LON WMO_WIND WMO_PRES WMO_AGENCY TRACK_TYPE DIST2LAND LANDFALL IFLAG USA_AGENCY USA_ATCF_ID USA_LAT USA_LON USA_RECORD USA_STATUS USA_WIND USA_PRES USA_SSHS USA_R34_NE USA_R34_SE USA_R34_SW USA_R34_NW USA_R50_NE USA_R50_SE USA_R50_SW USA_R50_NW USA_R64_NE USA_R64_SE USA_R64_SW USA_R64_NW USA_POCI USA_ROCI USA_RMW USA_EYE TOKYO_LAT TOKYO_LON TOKYO_GRADE TOKYO_WIND TOKYO_PRES TOKYO_R50_DIR TOKYO_R50_LONG TOKYO_R50_SHORT TOKYO_R30_DIR TOKYO_R30_LONG TOKYO_R30_SHORT TOKYO_LAND CMA_LAT CMA_LON CMA_CAT CMA_WIND CMA_PRES HKO_LAT HKO_LON HKO_CAT HKO_WIND HKO_PRES NEWDELHI_LAT NEWDELHI_LON NEWDELHI_GRADE NEWDELHI_WIND NEWDELHI_PRES NEWDELHI_CI NEWDELHI_DP NEWDELHI_POCI REUNION_LAT REUNION_LON REUNION_TYPE REUNION_WIND REUNION_PRES REUNION_TNUM REUNION_CI REUNION_RMW REUNION_R34_NE REUNION_R34_SE REUNION_R34_SW REUNION_R34_NW REUNION_R50_NE REUNION_R50_SE REUNION_R50_SW REUNION_R50_NW REUNION_R64_NE REUNION_R64_SE REUNION_R64_SW REUNION_R64_NW BOM_LAT BOM_LON BOM_TYPE BOM_WIND BOM_PRES BOM_TNUM BOM_CI BOM_RMW BOM_R34_NE BOM_R34_SE BOM_R34_SW BOM_R34_NW BOM_R50_NE BOM_R50_SE BOM_R50_SW BOM_R50_NW BOM_R64_NE BOM_R64_SE BOM_R64_SW BOM_R64_NW BOM_ROCI BOM_POCI BOM_EYE BOM_POS_METHOD BOM_PRES_METHOD NADI_LAT NADI_LON NADI_CAT NADI_WIND NADI_PRES WELLINGTON_LAT WELLINGTON_LON WELLINGTON_WIND WELLINGTON_PRES DS824_LAT DS824_LON DS824_STAGE DS824_WIND DS824_PRES TD9636_LAT TD9636_LON TD9636_STAGE TD9636_WIND TD9636_PRES TD9635_LAT TD9635_LON TD9635_WIND TD9635_PRES TD9635_ROCI NEUMANN_LAT NEUMANN_LON NEUMANN_CLASS NEUMANN_WIND NEUMANN_PRES MLC_LAT MLC_LON MLC_CLASS MLC_WIND MLC_PRES USA_GUST BOM_GUST BOM_GUST_PER REUNION_GUST REUNION_GUST_PER USA_SEAHGT USA_SEARAD_NE USA_SEARAD_SE USA_SEARAD_SW USA_SEARAD_NW STORM_SPEED STORM_DIR
1973300N10134 1973 118 WP MM NOT_NAMED 1973-10-27 00:00:00 TS 9.50000 133.800 main 817 780 __O___________ -1 9.50000 133.800 0 19 1005 9 302
1973300N10134 1973 118 WP MM NOT_NAMED 1973-10-27 03:00:00 TS 9.73504 133.420 main 780 747 __P___________ -1 9.73504 133.420 0 19 1004 9 302
1973300N10134 1973 118 WP MM NOT_NAMED 1973-10-27 06:00:00 TS 10.0000 133.000 main 747 700 __O___________ -1 10.0000 133.000 0 19 1004 11 303
1973300N10134 1973 118 WP MM NOT_NAMED 1973-10-27 09:00:00 TS 10.3200 132.515 main 700 657 __P___________ -1 10.3200 132.515 0 19 1004 12 305
1973300N10134 1973 118 WP MM NOT_NAMED 1973-10-27 12:00:00 TS 10.7000 132.000 main 657 618 __O___________ -1 10.7000 132.000 0 19 1004 13 309
1973300N10134 1973 118 WP MM NOT_NAMED 1973-10-27 15:00:00 TS 11.1500 131.470 main 622 571 __P___________ -1 11.1500 131.470 0 19 1004 13 313
1973300N10134 1973 118 WP MM NOT_NAMED 1973-10-27 18:00:00 TS 11.6000 131.000 main 571 543 __O___________ -1 11.6000 131.000 0 19 1004 11 317
1973300N10134 1973 118 WP MM NOT_NAMED 1973-10-27 21:00:00 TS 11.9648 130.685 main 545 522 __P___________ -1 11.9648 130.685 0 19 1004 9 320
1973300N10134 1973 118 WP MM NOT_NAMED 1973-10-28 00:00:00 TS 12.3000 130.400 main 522 491 __O___________ -1 12.3000 130.400 0 19 1004 10 316
1973300N10134 1973 118 WP MM NOT_NAMED 1973-10-28 03:00:00 TS 12.6576 130.000 main 492 454 __P___________ -1 12.6576 130.000 0 19 1004 11 312
1973300N10134 1973 118 WP MM NOT_NAMED 1973-10-28 06:00:00 TS 13.0000 129.600 main 454 427 __O___________ -1 13.0000 129.600 0 19 1004 10 312
1973300N10134 1973 118 WP MM NOT_NAMED 1973-10-28 09:00:00 TS 13.3074 129.270 main 430 410 __P___________ -1 13.3074 129.270 0 21 1004 8 316
1973300N10134 1973 118 WP MM NOT_NAMED 1973-10-28 12:00:00 TS 13.6000 129.000 main 410 400 __O___________ -1 13.6000 129.000 1 23 1004 8 321
1973300N10134 1973 118 WP MM NOT_NAMED 1973-10-28 15:00:00 TS 13.8925 128.777 main 405 395 __P___________ -1 13.8925 128.777 1 23 1004 7 327
1973300N10134 1973 118 WP MM NOT_NAMED 1973-10-28 18:00:00 TS 14.2000 128.600 main 403 401 __O___________ -1 14.2000 128.600 1 23 1004 7 333
1973300N10134 1973 118 WP MM NOT_NAMED 1973-10-28 21:00:00 TS 14.5500 128.435 main 406 406 __P___________ -1 14.5500 128.435 1 23 1004 8 337
1973300N10134 1973 118 WP MM NOT_NAMED 1973-10-29 00:00:00 TS 14.9000 128.300 main 427 427 __O___________ -1 14.9000 128.300 1 23 1004 7 339
1973300N10134 1973 118 WP MM NOT_NAMED 1973-10-29 03:00:00 TS 15.2000 128.177 main 434 428 __P___________ -1 15.2000 128.177 1 23 1004 6 342
1973300N10134 1973 118 WP MM NOT_NAMED 1973-10-29 06:00:00 TS 15.5000 128.100 main 436 436 __O___________ -1 15.5000 128.100 1 23 1004 6 351
1973300N10134 1973 118 WP MM NOT_NAMED 1973-10-29 09:00:00 TS 15.8350 128.077 main 451 451 __P___________ -1 15.8350 128.077 1 23 1004 7 0
1973300N10134 1973 118 WP MM NOT_NAMED 1973-10-29 12:00:00 TS 16.2000 128.100 main 473 473 __O___________ -1 16.2000 128.100 1 23 1004 8 4
1973300N10134 1973 118 WP MM NOT_NAMED 1973-10-29 15:00:00 TS 16.5925 128.128 main 498 498 __P___________ -1 16.5925 128.128 1 23 1004 8 7
1973300N10134 1973 118 WP MM NOT_NAMED 1973-10-29 18:00:00 TS 17.0000 128.200 main 535 535 __O___________ -1 17.0000 128.200 1 23 1004 8 12
1973300N10134 1973 118 WP MM NOT_NAMED 1973-10-29 21:00:00 TS 17.3924 128.305 main 572 572 __P___________ -1 17.3924 128.305 1 26 1004 9 20
1973300N10134 1973 118 WP MM NOT_NAMED 1973-10-30 00:00:00 TS 17.8000 128.500 main 618 618 __O___________ -1 17.8000 128.500 1 29 1004 10 31
1973300N10134 1973 118 WP MM NOT_NAMED 1973-10-30 03:00:00 TS 18.2351 128.827 main 672 672 __P___________ -1 18.2351 128.827 1 29 1003 11 36
1973300N10134 1973 118 WP MM NOT_NAMED 1973-10-30 06:00:00 TS 18.7000 129.200 main 728 728 __O___________ -1 18.7000 129.200 1 29 1002 12 34
1973300N10134 1973 118 WP MM NOT_NAMED 1973-10-30 09:00:00 TS 19.2150 129.537 main 763 763 __P___________ -1 19.2150 129.537 1 26 1003 12 30
1973300N10134 1973 118 WP MM NOT_NAMED 1973-10-30 12:00:00 TS 19.7000 129.800 main 801 801 __O___________ -1 19.7000 129.800 1 23 1004 10 26
1973300N10134 1973 118 WP MM NOT_NAMED 1973-10-30 15:00:00 TS 20.0724 129.975 main 830 830 __P___________ -1 20.0724 129.975 1 21 1005 7 15
1973300N10134 1973 118 WP MM NOT_NAMED 1973-10-30 18:00:00 TS 20.4000 130.000 main 837 833 __O___________ -1 20.4000 130.000 0 19 1006 7 352
1973300N10134 1973 118 WP MM NOT_NAMED 1973-10-30 21:00:00 TS 20.7799 129.868 main 840 821 __P___________ -1 20.7799 129.868 0 21 1006 8 332
1973300N10134 1973 118 WP MM NOT_NAMED 1973-10-31 00:00:00 TS 21.1000 129.600 main 821 800 __O___________ -1 21.1000 129.600 1 23 1006 8 312
1973300N10134 1973 118 WP MM NOT_NAMED 1973-10-31 03:00:00 TS 21.2951 129.257 main 800 767 __P___________ -1 21.2951 129.257 1 26 1005 7 295
1973300N10134 1973 118 WP MM NOT_NAMED 1973-10-31 06:00:00 TS 21.4000 128.900 main 767 744 __O___________ -1 21.4000 128.900 1 29 1005 6 287
1973300N10134 1973 118 WP MM NOT_NAMED 1973-10-31 09:00:00 TS 21.4724 128.627 main 744 725 __P___________ -1 21.4724 128.627 1 26 1005 5 282
1973300N10134 1973 118 WP MM NOT_NAMED 1973-10-31 12:00:00 TS 21.5000 128.400 main 725 707 __O___________ -1 21.5000 128.400 1 23 1006 4 275
1973300N10134 1973 118 WP MM NOT_NAMED 1973-10-31 15:00:00 TS 21.5074 128.192 main 707 689 __P___________ -1 21.5074 128.192 1 21 1006 4 270
1973300N10134 1973 118 WP MM NOT_NAMED 1973-10-31 18:00:00 TS 21.5000 128.000 main 689 671 __O___________ -1 21.5000 128.000 0 19 1006 4 269
1973300N10134 1973 118 WP MM NOT_NAMED 1973-10-31 21:00:00 TS 21.5000 127.785 main 671 653 __P___________ -1 21.5000 127.785 0 19 1006 4 270
1973300N10134 1973 118 WP MM NOT_NAMED 1973-11-01 00:00:00 TS 21.5000 127.600 main 653 644 __O___________ -1 21.5000 127.600 0 19 1006 3 270
1973300N10134 1973 118 WP MM NOT_NAMED 1973-11-01 03:00:00 TS 21.5000 127.480 main 644 635 __P___________ -1 21.5000 127.480 0 19 1005 2 270
1973300N10134 1973 118 WP MM NOT_NAMED 1973-11-01 06:00:00 TS 21.5000 127.400 main 635 __O___________ -1 21.5000 127.400 0 19 1005 1 270

デジタル台風データ・検索

IBTrACS Databaseについて

本データベースは、米国NOAAが公開する1842年以降の世界の熱帯低気圧のベストトラックデータアーカイブInternational Best Track Archive for Climate Stewardship (IBTrACS)を、ウェブで閲覧しやすい形式に変換したものです。

最終更新日:2021-12-06